sensor_id;sensor_type;location;lat;lon;timestamp;pressure;altitude;pressure_sealevel;temperature;humidity
18918;BME280;9591;52.742;13.650;2023-11-21T00:00:27;100296.34;;;23.25;31.21
18918;BME280;9591;52.742;13.650;2023-11-21T00:03:36;100294.75;;;23.42;30.99
18918;BME280;9591;52.742;13.650;2023-11-21T00:06:48;100300.75;;;23.55;30.95
18918;BME280;9591;52.742;13.650;2023-11-21T00:09:58;100306.16;;;23.36;31.08
18918;BME280;9591;52.742;13.650;2023-11-21T00:13:03;100308.41;;;23.40;31.07
18918;BME280;9591;52.742;13.650;2023-11-21T00:16:05;100308.41;;;23.11;31.47
18918;BME280;9591;52.742;13.650;2023-11-21T00:19:08;100308.44;;;23.60;30.88
18918;BME280;9591;52.742;13.650;2023-11-21T00:22:34;100318.69;;;23.66;30.58
18918;BME280;9591;52.742;13.650;2023-11-21T00:25:32;100315.69;;;23.69;30.47
18918;BME280;9591;52.742;13.650;2023-11-21T00:28:35;100326.59;;;23.09;31.11
18918;BME280;9591;52.742;13.650;2023-11-21T00:31:41;100332.13;;;23.08;30.90
18918;BME280;9591;52.742;13.650;2023-11-21T00:34:35;100332.38;;;22.95;31.84
18918;BME280;9591;52.742;13.650;2023-11-21T00:37:30;100332.25;;;22.66;31.74
18918;BME280;9591;52.742;13.650;2023-11-21T00:40:42;100330.25;;;22.89;31.20
18918;BME280;9591;52.742;13.650;2023-11-21T00:43:57;100329.47;;;23.37;30.54
18918;BME280;9591;52.742;13.650;2023-11-21T00:46:58;100334.72;;;23.29;30.86
18918;BME280;9591;52.742;13.650;2023-11-21T00:50:01;100344.69;;;23.28;30.41
18918;BME280;9591;52.742;13.650;2023-11-21T00:52:56;100341.91;;;22.29;31.79
18918;BME280;9591;52.742;13.650;2023-11-21T00:55:50;100332.84;;;22.70;31.34
18918;BME280;9591;52.742;13.650;2023-11-21T00:59:03;100296.88;;;22.60;30.88
18918;BME280;9591;52.742;13.650;2023-11-21T01:02:27;100343.22;;;22.74;31.17
18918;BME280;9591;52.742;13.650;2023-11-21T01:05:36;100343.06;;;21.52;32.72
18918;BME280;9591;52.742;13.650;2023-11-21T01:08:28;100345.63;;;22.37;31.70
18918;BME280;9591;52.742;13.650;2023-11-21T01:11:31;100344.00;;;22.86;31.06
18918;BME280;9591;52.742;13.650;2023-11-21T01:14:43;100353.25;;;22.63;31.29
18918;BME280;9591;52.742;13.650;2023-11-21T01:17:47;100354.53;;;22.28;31.75
18918;BME280;9591;52.742;13.650;2023-11-21T01:20:43;100362.75;;;22.57;31.07
18918;BME280;9591;52.742;13.650;2023-11-21T01:23:39;100374.91;;;22.72;31.15
18918;BME280;9591;52.742;13.650;2023-11-21T01:26:35;100377.16;;;22.98;30.95
18918;BME280;9591;52.742;13.650;2023-11-21T01:29:24;100379.59;;;23.01;30.77
18918;BME280;9591;52.742;13.650;2023-11-21T01:32:15;100378.19;;;23.06;30.52
18918;BME280;9591;52.742;13.650;2023-11-21T01:35:09;100385.81;;;22.92;31.01
18918;BME280;9591;52.742;13.650;2023-11-21T01:37:59;100383.34;;;23.19;30.43
18918;BME280;9591;52.742;13.650;2023-11-21T01:40:48;100382.28;;;23.01;30.86
18918;BME280;9591;52.742;13.650;2023-11-21T01:43:38;100382.69;;;22.96;30.59
18918;BME280;9591;52.742;13.650;2023-11-21T01:46:27;100380.00;;;22.96;30.81
18918;BME280;9591;52.742;13.650;2023-11-21T01:49:23;100377.03;;;22.99;30.55
18918;BME280;9591;52.742;13.650;2023-11-21T01:52:12;100381.72;;;22.76;30.86
18918;BME280;9591;52.742;13.650;2023-11-21T01:55:05;100384.19;;;22.79;30.70
18918;BME280;9591;52.742;13.650;2023-11-21T01:57:54;100379.28;;;22.94;30.83
18918;BME280;9591;52.742;13.650;2023-11-21T02:00:42;100381.38;;;21.77;31.90
18918;BME280;9591;52.742;13.650;2023-11-21T02:03:35;100388.88;;;22.56;31.20
18918;BME280;9591;52.742;13.650;2023-11-21T02:06:26;100395.88;;;22.89;30.39
18918;BME280;9591;52.742;13.650;2023-11-21T02:09:24;100393.25;;;22.78;30.77
18918;BME280;9591;52.742;13.650;2023-11-21T02:12:12;100398.47;;;23.01;30.55
18918;BME280;9591;52.742;13.650;2023-11-21T02:15:00;100396.44;;;22.63;30.97
18918;BME280;9591;52.742;13.650;2023-11-21T02:17:52;100393.47;;;22.66;31.04
18918;BME280;9591;52.742;13.650;2023-11-21T02:20:40;100395.78;;;22.70;31.10
18918;BME280;9591;52.742;13.650;2023-11-21T02:23:30;100405.25;;;22.65;31.16
18918;BME280;9591;52.742;13.650;2023-11-21T02:26:27;100399.88;;;22.95;30.82
18918;BME280;9591;52.742;13.650;2023-11-21T02:29:16;100411.41;;;22.76;30.61
18918;BME280;9591;52.742;13.650;2023-11-21T02:32:08;100408.97;;;22.94;30.33
18918;BME280;9591;52.742;13.650;2023-11-21T02:34:58;100411.72;;;23.04;30.18
18918;BME280;9591;52.742;13.650;2023-11-21T02:37:54;100408.50;;;22.79;30.51
18918;BME280;9591;52.742;13.650;2023-11-21T02:40:46;100419.38;;;22.78;30.56
18918;BME280;9591;52.742;13.650;2023-11-21T02:43:38;100419.34;;;23.29;30.11
18918;BME280;9591;52.742;13.650;2023-11-21T02:46:25;100425.41;;;22.81;30.51
18918;BME280;9591;52.742;13.650;2023-11-21T02:49:12;100423.19;;;22.96;30.27
18918;BME280;9591;52.742;13.650;2023-11-21T02:51:59;100426.50;;;22.48;31.09
18918;BME280;9591;52.742;13.650;2023-11-21T02:54:49;100414.97;;;22.77;30.36
18918;BME280;9591;52.742;13.650;2023-11-21T02:57:38;100428.00;;;22.93;30.26
18918;BME280;9591;52.742;13.650;2023-11-21T03:00:26;100432.69;;;22.39;30.62
18918;BME280;9591;52.742;13.650;2023-11-21T03:03:16;100423.75;;;22.69;30.26
18918;BME280;9591;52.742;13.650;2023-11-21T03:06:05;100425.00;;;22.65;30.36
18918;BME280;9591;52.742;13.650;2023-11-21T03:08:56;100433.66;;;22.17;31.10
18918;BME280;9591;52.742;13.650;2023-11-21T03:11:43;100430.78;;;22.09;31.18
18918;BME280;9591;52.742;13.650;2023-11-21T03:14:39;100432.38;;;22.33;30.15
18918;BME280;9591;52.742;13.650;2023-11-21T03:17:28;100437.56;;;22.24;30.36
18918;BME280;9591;52.742;13.650;2023-11-21T03:20:47;100437.59;;;22.13;30.80
18918;BME280;9591;52.742;13.650;2023-11-21T03:23:36;100441.69;;;21.97;30.47
18918;BME280;9591;52.742;13.650;2023-11-21T03:26:25;100447.78;;;21.01;32.08
18918;BME280;9591;52.742;13.650;2023-11-21T03:29:15;100444.34;;;21.76;30.74
18918;BME280;9591;52.742;13.650;2023-11-21T03:32:09;100451.66;;;21.64;30.98
18918;BME280;9591;52.742;13.650;2023-11-21T03:34:59;100455.09;;;21.87;30.58
18918;BME280;9591;52.742;13.650;2023-11-21T03:37:48;100455.84;;;21.78;30.78
18918;BME280;9591;52.742;13.650;2023-11-21T03:40:35;100460.63;;;22.17;30.10
18918;BME280;9591;52.742;13.650;2023-11-21T03:43:25;100456.84;;;22.41;29.86
18918;BME280;9591;52.742;13.650;2023-11-21T03:46:12;100463.13;;;22.09;30.29
18918;BME280;9591;52.742;13.650;2023-11-21T03:49:06;100460.84;;;22.26;30.33
18918;BME280;9591;52.742;13.650;2023-11-21T03:51:53;100470.91;;;22.44;29.86
18918;BME280;9591;52.742;13.650;2023-11-21T03:54:41;100469.47;;;22.19;30.55
18918;BME280;9591;52.742;13.650;2023-11-21T03:57:33;100470.22;;;22.10;30.69
18918;BME280;9591;52.742;13.650;2023-11-21T04:00:27;100480.03;;;22.00;30.70
18918;BME280;9591;52.742;13.650;2023-11-21T04:03:14;100480.28;;;22.08;30.47
18918;BME280;9591;52.742;13.650;2023-11-21T04:06:17;100479.81;;;22.03;30.60
18918;BME280;9591;52.742;13.650;2023-11-21T04:09:05;100488.84;;;22.13;30.81
18918;BME280;9591;52.742;13.650;2023-11-21T04:11:53;100484.38;;;22.65;30.11
18918;BME280;9591;52.742;13.650;2023-11-21T04:14:41;100484.56;;;22.73;29.82
18918;BME280;9591;52.742;13.650;2023-11-21T04:17:32;100493.63;;;23.14;29.49
18918;BME280;9591;52.742;13.650;2023-11-21T04:20:22;100502.19;;;23.19;29.07
18918;BME280;9591;52.742;13.650;2023-11-21T04:23:14;100503.28;;;22.65;29.41
18918;BME280;9591;52.742;13.650;2023-11-21T04:26:02;100505.03;;;22.76;29.25
18918;BME280;9591;52.742;13.650;2023-11-21T04:28:50;100504.81;;;22.79;29.28
18918;BME280;9591;52.742;13.650;2023-11-21T04:31:39;100511.06;;;22.79;29.07
18918;BME280;9591;52.742;13.650;2023-11-21T04:34:29;100512.34;;;22.22;29.50
18918;BME280;9591;52.742;13.650;2023-11-21T04:37:17;100520.84;;;21.64;30.17
18918;BME280;9591;52.742;13.650;2023-11-21T04:40:14;100530.72;;;21.74;30.08
18918;BME280;9591;52.742;13.650;2023-11-21T04:43:01;100526.50;;;21.92;30.08
18918;BME280;9591;52.742;13.650;2023-11-21T04:45:50;100533.84;;;21.58;30.37
18918;BME280;9591;52.742;13.650;2023-11-21T04:48:40;100532.69;;;22.27;29.69
18918;BME280;9591;52.742;13.650;2023-11-21T04:51:43;100532.38;;;22.09;29.95
18918;BME280;9591;52.742;13.650;2023-11-21T04:54:30;100535.56;;;22.14;29.95
18918;BME280;9591;52.742;13.650;2023-11-21T04:57:24;100538.16;;;22.36;29.56
18918;BME280;9591;52.742;13.650;2023-11-21T05:00:12;100546.47;;;22.12;29.65
18918;BME280;9591;52.742;13.650;2023-11-21T05:03:06;100542.97;;;21.67;30.27
18918;BME280;9591;52.742;13.650;2023-11-21T05:05:56;100556.13;;;21.38;30.48
18918;BME280;9591;52.742;13.650;2023-11-21T05:08:48;100556.84;;;21.63;30.28
18918;BME280;9591;52.742;13.650;2023-11-21T05:11:35;100561.28;;;21.30;30.36
18918;BME280;9591;52.742;13.650;2023-11-21T05:14:28;100558.09;;;21.58;30.09
18918;BME280;9591;52.742;13.650;2023-11-21T05:17:15;100563.31;;;21.71;29.89
18918;BME280;9591;52.742;13.650;2023-11-21T05:20:08;100565.41;;;21.68;29.83
18918;BME280;9591;52.742;13.650;2023-11-21T05:22:56;100573.31;;;21.91;29.62
18918;BME280;9591;52.742;13.650;2023-11-21T05:25:46;100574.44;;;21.78;29.39
18918;BME280;9591;52.742;13.650;2023-11-21T05:28:33;100571.41;;;22.57;28.71
18918;BME280;9591;52.742;13.650;2023-11-21T05:31:24;100578.72;;;22.46;28.87
18918;BME280;9591;52.742;13.650;2023-11-21T05:34:15;100587.41;;;22.06;29.02
18918;BME280;9591;52.742;13.650;2023-11-21T05:37:04;100582.66;;;22.42;28.63
18918;BME280;9591;52.742;13.650;2023-11-21T05:39:58;100589.03;;;22.62;28.72
18918;BME280;9591;52.742;13.650;2023-11-21T05:42:55;100586.41;;;22.50;28.58
18918;BME280;9591;52.742;13.650;2023-11-21T05:45:43;100594.84;;;22.78;28.46
18918;BME280;9591;52.742;13.650;2023-11-21T05:48:31;100594.91;;;22.46;28.89
18918;BME280;9591;52.742;13.650;2023-11-21T05:51:18;100596.34;;;22.50;28.75
18918;BME280;9591;52.742;13.650;2023-11-21T05:54:36;100600.03;;;21.95;29.61
18918;BME280;9591;52.742;13.650;2023-11-21T05:57:25;100607.75;;;21.99;29.55
18918;BME280;9591;52.742;13.650;2023-11-21T06:00:16;100605.44;;;22.06;29.22
18918;BME280;9591;52.742;13.650;2023-11-21T06:03:11;100613.25;;;21.98;29.51
18918;BME280;9591;52.742;13.650;2023-11-21T06:06:30;100615.16;;;21.52;30.18
18918;BME280;9591;52.742;13.650;2023-11-21T06:09:17;100571.56;;;21.47;29.27
18918;BME280;9591;52.742;13.650;2023-11-21T06:12:06;100624.16;;;21.96;29.29
18918;BME280;9591;52.742;13.650;2023-11-21T06:14:56;100622.94;;;22.22;28.66
18918;BME280;9591;52.742;13.650;2023-11-21T06:17:48;100635.69;;;21.98;29.06
18918;BME280;9591;52.742;13.650;2023-11-21T06:20:49;100648.72;;;22.04;28.60
18918;BME280;9591;52.742;13.650;2023-11-21T06:23:43;100647.97;;;21.69;29.27
18918;BME280;9591;52.742;13.650;2023-11-21T06:26:30;100647.56;;;21.96;28.93
18918;BME280;9591;52.742;13.650;2023-11-21T06:29:23;100660.97;;;22.08;28.63
18918;BME280;9591;52.742;13.650;2023-11-21T06:32:12;100668.91;;;21.99;28.89
18918;BME280;9591;52.742;13.650;2023-11-21T06:35:03;100677.47;;;22.26;28.48
18918;BME280;9591;52.742;13.650;2023-11-21T06:37:50;100682.66;;;21.62;29.11
18918;BME280;9591;52.742;13.650;2023-11-21T06:40:41;100687.78;;;21.99;28.75
18918;BME280;9591;52.742;13.650;2023-11-21T06:43:27;100685.94;;;22.21;28.55
18918;BME280;9591;52.742;13.650;2023-11-21T06:46:42;100693.28;;;22.31;28.46
18918;BME280;9591;52.742;13.650;2023-11-21T06:49:30;100692.81;;;21.81;29.32
18918;BME280;9591;52.742;13.650;2023-11-21T06:53:22;100698.31;;;21.79;28.73
18918;BME280;9591;52.742;13.650;2023-11-21T06:56:17;100705.53;;;22.01;28.51
18918;BME280;9591;52.742;13.650;2023-11-21T06:59:09;100706.78;;;22.19;28.03
18918;BME280;9591;52.742;13.650;2023-11-21T07:01:59;100706.03;;;21.73;28.86
18918;BME280;9591;52.742;13.650;2023-11-21T07:04:49;100704.13;;;20.33;30.45
18918;BME280;9591;52.742;13.650;2023-11-21T07:07:50;100709.72;;;21.83;28.77
18918;BME280;9591;52.742;13.650;2023-11-21T07:10:41;100715.31;;;20.76;29.71
18918;BME280;9591;52.742;13.650;2023-11-21T07:13:30;100715.16;;;21.25;29.29
18918;BME280;9591;52.742;13.650;2023-11-21T07:16:21;100717.97;;;21.24;29.32
18918;BME280;9591;52.742;13.650;2023-11-21T07:19:09;100721.00;;;21.99;28.63
18918;BME280;9591;52.742;13.650;2023-11-21T07:21:58;100730.03;;;21.76;28.66
18918;BME280;9591;52.742;13.650;2023-11-21T07:24:49;100722.72;;;22.00;28.29
18918;BME280;9591;52.742;13.650;2023-11-21T07:27:39;100712.91;;;20.95;29.16
18918;BME280;9591;52.742;13.650;2023-11-21T07:30:36;100714.81;;;21.41;28.94
18918;BME280;9591;52.742;13.650;2023-11-21T07:33:26;100724.25;;;21.36;29.05
18918;BME280;9591;52.742;13.650;2023-11-21T07:36:15;100729.97;;;21.31;29.25
18918;BME280;9591;52.742;13.650;2023-11-21T07:39:03;100738.84;;;21.55;29.08
18918;BME280;9591;52.742;13.650;2023-11-21T07:41:54;100752.47;;;21.87;28.92
18918;BME280;9591;52.742;13.650;2023-11-21T07:44:43;100741.63;;;22.22;28.02
18918;BME280;9591;52.742;13.650;2023-11-21T07:47:36;100747.97;;;22.33;28.11
18918;BME280;9591;52.742;13.650;2023-11-21T07:50:30;100746.41;;;22.08;28.21
18918;BME280;9591;52.742;13.650;2023-11-21T07:53:20;100748.47;;;21.12;29.24
18918;BME280;9591;52.742;13.650;2023-11-21T07:56:09;100749.22;;;21.38;29.21
18918;BME280;9591;52.742;13.650;2023-11-21T07:58:56;100765.41;;;22.06;28.42
18918;BME280;9591;52.742;13.650;2023-11-21T08:01:44;100761.91;;;21.93;28.38
18918;BME280;9591;52.742;13.650;2023-11-21T08:04:37;100767.22;;;20.89;29.79
18918;BME280;9591;52.742;13.650;2023-11-21T08:07:24;100773.16;;;21.53;29.26
18918;BME280;9591;52.742;13.650;2023-11-21T08:10:11;100780.78;;;21.82;29.01
18918;BME280;9591;52.742;13.650;2023-11-21T08:13:02;100786.16;;;21.71;28.74
18918;BME280;9591;52.742;13.650;2023-11-21T08:15:50;100786.13;;;22.28;27.89
18918;BME280;9591;52.742;13.650;2023-11-21T08:18:39;100788.69;;;22.30;27.80
18918;BME280;9591;52.742;13.650;2023-11-21T08:21:29;100792.00;;;22.11;28.12
18918;BME280;9591;52.742;13.650;2023-11-21T08:24:17;100787.88;;;21.83;28.46
18918;BME280;9591;52.742;13.650;2023-11-21T08:27:13;100791.28;;;21.74;28.81
18918;BME280;9591;52.742;13.650;2023-11-21T08:30:06;100801.25;;;21.96;28.68
18918;BME280;9591;52.742;13.650;2023-11-21T08:33:03;100791.97;;;21.18;29.49
18918;BME280;9591;52.742;13.650;2023-11-21T08:39:37;100804.38;;;20.60;29.85
18918;BME280;9591;52.742;13.650;2023-11-21T08:42:24;100805.72;;;21.03;29.36
18918;BME280;9591;52.742;13.650;2023-11-21T08:45:14;100812.84;;;21.27;29.24
18918;BME280;9591;52.742;13.650;2023-11-21T08:48:03;100826.38;;;21.96;28.46
18918;BME280;9591;52.742;13.650;2023-11-21T08:50:53;100813.53;;;21.42;28.64
18918;BME280;9591;52.742;13.650;2023-11-21T08:53:41;100789.44;;;20.80;28.97
18918;BME280;9591;52.742;13.650;2023-11-21T08:56:33;100825.75;;;20.99;29.17
18918;BME280;9591;52.742;13.650;2023-11-21T08:59:20;100832.16;;;20.23;30.01
18918;BME280;9591;52.742;13.650;2023-11-21T09:02:09;100845.16;;;20.16;30.26
18918;BME280;9591;52.742;13.650;2023-11-21T09:05:01;100844.91;;;21.54;28.36
18918;BME280;9591;52.742;13.650;2023-11-21T09:08:14;100852.50;;;20.89;29.08
18918;BME280;9591;52.742;13.650;2023-11-21T09:11:04;100856.38;;;20.85;29.10
18918;BME280;9591;52.742;13.650;2023-11-21T09:13:57;100854.91;;;21.05;28.90
18918;BME280;9591;52.742;13.650;2023-11-21T09:16:47;100860.13;;;21.55;28.30
18918;BME280;9591;52.742;13.650;2023-11-21T09:19:35;100863.19;;;21.14;28.79
18918;BME280;9591;52.742;13.650;2023-11-21T09:22:22;100869.75;;;21.23;28.68
18918;BME280;9591;52.742;13.650;2023-11-21T09:25:10;100874.09;;;20.76;29.38
18918;BME280;9591;52.742;13.650;2023-11-21T09:27:58;100878.38;;;20.79;29.14
18918;BME280;9591;52.742;13.650;2023-11-21T09:31:15;100871.66;;;21.21;28.94
18918;BME280;9591;52.742;13.650;2023-11-21T09:34:08;100881.13;;;20.41;29.57
18918;BME280;9591;52.742;13.650;2023-11-21T09:36:57;100882.19;;;20.38;29.70
18918;BME280;9591;52.742;13.650;2023-11-21T09:39:48;100888.84;;;21.07;29.00
18918;BME280;9591;52.742;13.650;2023-11-21T09:42:39;100892.97;;;20.87;29.09
18918;BME280;9591;52.742;13.650;2023-11-21T09:45:35;100885.81;;;21.48;28.48
18918;BME280;9591;52.742;13.650;2023-11-21T09:48:29;100899.44;;;21.58;28.33
18918;BME280;9591;52.742;13.650;2023-11-21T09:51:31;100902.03;;;21.59;28.04
18918;BME280;9591;52.742;13.650;2023-11-21T09:54:27;100902.31;;;21.79;27.73
18918;BME280;9591;52.742;13.650;2023-11-21T09:57:21;100909.22;;;22.29;27.38
18918;BME280;9591;52.742;13.650;2023-11-21T10:00:11;100899.13;;;22.09;27.73
18918;BME280;9591;52.742;13.650;2023-11-21T10:03:04;100904.78;;;22.17;27.55
18918;BME280;9591;52.742;13.650;2023-11-21T10:05:57;100908.84;;;21.87;27.51
18918;BME280;9591;52.742;13.650;2023-11-21T10:08:52;100910.50;;;21.42;27.88
18918;BME280;9591;52.742;13.650;2023-11-21T10:11:45;100915.63;;;20.34;29.52
18918;BME280;9591;52.742;13.650;2023-11-21T10:14:34;100915.59;;;21.58;28.07
18918;BME280;9591;52.742;13.650;2023-11-21T10:17:24;100910.44;;;21.90;27.57
18918;BME280;9591;52.742;13.650;2023-11-21T10:20:21;100914.34;;;22.10;27.67
18918;BME280;9591;52.742;13.650;2023-11-21T10:23:12;100922.16;;;21.43;27.93
18918;BME280;9591;52.742;13.650;2023-11-21T10:26:02;100912.81;;;20.10;29.41
18918;BME280;9591;52.742;13.650;2023-11-21T10:29:05;100921.97;;;21.57;28.06
18918;BME280;9591;52.742;13.650;2023-11-21T10:31:52;100929.34;;;19.79;30.00
18918;BME280;9591;52.742;13.650;2023-11-21T10:34:57;100922.38;;;20.14;29.27
18918;BME280;9591;52.742;13.650;2023-11-21T10:38:00;100930.72;;;21.24;28.58
18918;BME280;9591;52.742;13.650;2023-11-21T10:40:52;100936.84;;;21.26;28.00
18918;BME280;9591;52.742;13.650;2023-11-21T10:43:43;100942.25;;;20.39;29.15
18918;BME280;9591;52.742;13.650;2023-11-21T10:46:33;100949.88;;;21.32;28.17
18918;BME280;9591;52.742;13.650;2023-11-21T10:49:27;100941.22;;;20.90;28.78
18918;BME280;9591;52.742;13.650;2023-11-21T10:52:19;100949.19;;;20.28;29.02
18918;BME280;9591;52.742;13.650;2023-11-21T10:55:16;100957.72;;;21.35;28.08
18918;BME280;9591;52.742;13.650;2023-11-21T10:58:09;100955.47;;;21.77;27.51
18918;BME280;9591;52.742;13.650;2023-11-21T11:00:59;100948.22;;;21.42;27.70
18918;BME280;9591;52.742;13.650;2023-11-21T11:03:52;100950.41;;;21.61;27.60
18918;BME280;9591;52.742;13.650;2023-11-21T11:06:47;100957.09;;;21.32;28.31
18918;BME280;9591;52.742;13.650;2023-11-21T11:09:39;100950.00;;;21.05;28.48
18918;BME280;9591;52.742;13.650;2023-11-21T11:12:32;100960.66;;;20.05;30.02
18918;BME280;9591;52.742;13.650;2023-11-21T11:15:23;100954.75;;;21.27;28.46
18918;BME280;9591;52.742;13.650;2023-11-21T11:18:12;100968.28;;;21.38;28.33
18918;BME280;9591;52.742;13.650;2023-11-21T11:21:14;100967.91;;;19.78;29.77
18918;BME280;9591;52.742;13.650;2023-11-21T11:24:33;100969.75;;;19.77;30.23
18918;BME280;9591;52.742;13.650;2023-11-21T11:27:37;100970.88;;;20.65;29.46
18918;BME280;9591;52.742;13.650;2023-11-21T11:31:01;100982.66;;;21.26;28.73
18918;BME280;9591;52.742;13.650;2023-11-21T11:33:53;100976.31;;;21.51;28.26
18918;BME280;9591;52.742;13.650;2023-11-21T11:36:51;100989.00;;;21.25;28.64
18918;BME280;9591;52.742;13.650;2023-11-21T11:39:43;100990.69;;;21.39;28.37
18918;BME280;9591;52.742;13.650;2023-11-21T11:42:35;100994.91;;;21.30;28.59
18918;BME280;9591;52.742;13.650;2023-11-21T11:45:33;101003.13;;;20.40;29.65
18918;BME280;9591;52.742;13.650;2023-11-21T11:48:30;101006.13;;;21.24;28.73
18918;BME280;9591;52.742;13.650;2023-11-21T11:51:26;101010.44;;;21.63;27.87
18918;BME280;9591;52.742;13.650;2023-11-21T11:54:15;101021.88;;;20.14;29.68
18918;BME280;9591;52.742;13.650;2023-11-21T11:57:06;101026.50;;;21.28;28.58
18918;BME280;9591;52.742;13.650;2023-11-21T12:04:23;101032.78;;;21.76;27.94
18918;BME280;9591;52.742;13.650;2023-11-21T12:07:16;101041.63;;;21.78;28.30
18918;BME280;9591;52.742;13.650;2023-11-21T12:10:04;101039.84;;;21.90;28.02
18918;BME280;9591;52.742;13.650;2023-11-21T12:13:01;101046.56;;;21.84;28.26
18918;BME280;9591;52.742;13.650;2023-11-21T12:15:53;101036.19;;;21.31;28.52
18918;BME280;9591;52.742;13.650;2023-11-21T12:18:54;101052.53;;;20.51;29.50
18918;BME280;9591;52.742;13.650;2023-11-21T12:21:43;101063.28;;;20.12;30.02
18918;BME280;9591;52.742;13.650;2023-11-21T12:24:55;101058.91;;;21.14;29.04
18918;BME280;9591;52.742;13.650;2023-11-21T12:27:52;101070.84;;;20.59;29.44
18918;BME280;9591;52.742;13.650;2023-11-21T12:30:40;101075.13;;;19.95;29.99
18918;BME280;9591;52.742;13.650;2023-11-21T12:33:30;101082.72;;;20.69;29.11
18918;BME280;9591;52.742;13.650;2023-11-21T12:36:21;101085.06;;;21.12;28.69
18918;BME280;9591;52.742;13.650;2023-11-21T12:39:08;101085.13;;;20.47;29.18
18918;BME280;9591;52.742;13.650;2023-11-21T12:41:58;101082.53;;;20.18;29.43
18918;BME280;9591;52.742;13.650;2023-11-21T12:44:48;101084.84;;;18.85;30.96
18918;BME280;9591;52.742;13.650;2023-11-21T12:47:35;101092.88;;;18.25;31.75
18918;BME280;9591;52.742;13.650;2023-11-21T12:50:27;101092.28;;;20.34;29.26
18918;BME280;9591;52.742;13.650;2023-11-21T12:53:21;101093.91;;;21.14;28.20
18918;BME280;9591;52.742;13.650;2023-11-21T12:56:25;101105.75;;;20.99;28.12
18918;BME280;9591;52.742;13.650;2023-11-21T12:59:14;101108.25;;;19.54;30.16
18918;BME280;9591;52.742;13.650;2023-11-21T13:02:05;101115.13;;;19.87;29.41
18918;BME280;9591;52.742;13.650;2023-11-21T13:04:54;101122.16;;;19.75;29.73
18918;BME280;9591;52.742;13.650;2023-11-21T13:07:44;101119.16;;;19.23;30.04
18918;BME280;9591;52.742;13.650;2023-11-21T13:10:39;101126.97;;;19.97;29.08
18918;BME280;9591;52.742;13.650;2023-11-21T13:13:29;101123.53;;;19.95;29.47
18918;BME280;9591;52.742;13.650;2023-11-21T13:16:21;101132.34;;;19.56;29.92
18918;BME280;9591;52.742;13.650;2023-11-21T13:19:09;101135.97;;;19.41;29.95
18918;BME280;9591;52.742;13.650;2023-11-21T13:22:00;101142.09;;;20.12;29.29
18918;BME280;9591;52.742;13.650;2023-11-21T13:24:53;101143.25;;;19.81;29.32
18918;BME280;9591;52.742;13.650;2023-11-21T13:27:42;101149.59;;;20.07;28.84
18918;BME280;9591;52.742;13.650;2023-11-21T13:30:30;101151.69;;;20.16;29.08
18918;BME280;9591;52.742;13.650;2023-11-21T13:33:20;101161.44;;;20.46;28.68
18918;BME280;9591;52.742;13.650;2023-11-21T13:36:17;101163.81;;;20.09;29.08
18918;BME280;9591;52.742;13.650;2023-11-21T13:39:08;101155.75;;;20.36;28.56
18918;BME280;9591;52.742;13.650;2023-11-21T13:42:03;101163.41;;;20.15;28.88
18918;BME280;9591;52.742;13.650;2023-11-21T13:45:00;101159.25;;;20.38;28.47
18918;BME280;9591;52.742;13.650;2023-11-21T13:47:47;101173.50;;;20.53;28.36
18918;BME280;9591;52.742;13.650;2023-11-21T13:50:37;101178.03;;;19.97;29.10
18918;BME280;9591;52.742;13.650;2023-11-21T13:53:27;101181.56;;;19.56;29.18
18918;BME280;9591;52.742;13.650;2023-11-21T13:56:17;101188.38;;;20.17;28.62
18918;BME280;9591;52.742;13.650;2023-11-21T13:59:10;101187.84;;;19.98;28.79
18918;BME280;9591;52.742;13.650;2023-11-21T14:02:06;101196.59;;;20.43;27.77
18918;BME280;9591;52.742;13.650;2023-11-21T14:05:04;101204.09;;;19.10;29.55
18918;BME280;9591;52.742;13.650;2023-11-21T14:07:58;101202.03;;;20.00;28.34
18918;BME280;9591;52.742;13.650;2023-11-21T14:10:48;101203.34;;;18.78;29.92
18918;BME280;9591;52.742;13.650;2023-11-21T14:13:44;101207.03;;;18.29;30.04
18918;BME280;9591;52.742;13.650;2023-11-21T14:16:34;101214.13;;;18.15;30.22
18918;BME280;9591;52.742;13.650;2023-11-21T14:19:23;101217.91;;;19.04;29.20
18918;BME280;9591;52.742;13.650;2023-11-21T14:22:14;101221.63;;;18.55;29.46
18918;BME280;9591;52.742;13.650;2023-11-21T14:25:07;101218.91;;;18.87;28.87
18918;BME280;9591;52.742;13.650;2023-11-21T14:27:57;101229.47;;;19.34;28.68
18918;BME280;9591;52.742;13.650;2023-11-21T14:30:47;101233.00;;;19.64;28.18
18918;BME280;9591;52.742;13.650;2023-11-21T14:33:35;101239.78;;;19.12;28.89
18918;BME280;9591;52.742;13.650;2023-11-21T14:36:26;101248.81;;;18.65;29.27
18918;BME280;9591;52.742;13.650;2023-11-21T14:39:13;101248.44;;;19.61;28.18
18918;BME280;9591;52.742;13.650;2023-11-21T14:42:10;101244.16;;;19.43;28.42
18918;BME280;9591;52.742;13.650;2023-11-21T14:45:00;101248.50;;;19.01;28.85
18918;BME280;9591;52.742;13.650;2023-11-21T14:48:21;101256.41;;;18.88;28.91
18918;BME280;9591;52.742;13.650;2023-11-21T14:51:27;101264.28;;;18.91;28.73
18918;BME280;9591;52.742;13.650;2023-11-21T14:54:39;101263.69;;;19.30;28.47
18918;BME280;9591;52.742;13.650;2023-11-21T14:57:28;101274.19;;;19.49;28.52
18918;BME280;9591;52.742;13.650;2023-11-21T15:00:16;101270.66;;;19.49;28.71
18918;BME280;9591;52.742;13.650;2023-11-21T15:03:13;101283.75;;;19.97;27.95
18918;BME280;9591;52.742;13.650;2023-11-21T15:06:20;101282.81;;;19.84;27.60
18918;BME280;9591;52.742;13.650;2023-11-21T15:09:14;101285.97;;;20.05;27.69
18918;BME280;9591;52.742;13.650;2023-11-21T15:12:27;101296.66;;;19.18;28.20
18918;BME280;9591;52.742;13.650;2023-11-21T15:15:20;101290.00;;;19.98;27.33